createdAt,value
2018-10-16T00:02:13.511Z,69.94
2018-10-16T00:04:40.671Z,69.68
2018-10-16T00:07:07.864Z,69.24
2018-10-16T00:09:34.994Z,69.16
2018-10-16T00:12:03.369Z,69.08
2018-10-16T00:14:30.800Z,68.96
2018-10-16T00:16:58.314Z,68.21
2018-10-16T00:19:25.528Z,68.83
2018-10-16T00:21:52.872Z,68.81
2018-10-16T00:24:20.326Z,69.35
2018-10-16T00:26:50.277Z,69.09
2018-10-16T00:29:17.505Z,68.84
2018-10-16T00:31:44.703Z,69.96
2018-10-16T00:34:11.867Z,69.39
2018-10-16T00:36:38.961Z,70.47
2018-10-16T00:39:09.302Z,71.04
2018-10-16T00:41:37.139Z,70.58
2018-10-16T00:44:04.359Z,69.96
2018-10-16T00:46:31.505Z,70.30
2018-10-16T00:48:58.654Z,70.33
2018-10-16T00:51:25.776Z,70.45
2018-10-16T00:53:52.914Z,70.23
2018-10-16T00:56:20.014Z,70.18
2018-10-16T00:58:47.198Z,70.08
2018-10-16T01:01:17.739Z,70.08
2018-10-16T01:03:44.883Z,70.14
2018-10-16T01:06:12.010Z,69.67
2018-10-16T01:08:39.198Z,69.69
2018-10-16T01:11:09.817Z,69.32
2018-10-16T01:13:36.985Z,69.09
2018-10-16T01:16:04.465Z,69.38
2018-10-16T01:18:31.849Z,68.75
2018-10-16T01:20:58.944Z,69.21
2018-10-16T01:23:26.148Z,69.28
2018-10-16T01:25:53.279Z,69.88
2018-10-16T01:28:20.429Z,69.62
2018-10-16T01:30:47.599Z,69.68
2018-10-16T01:33:14.737Z,68.52
2018-10-16T01:35:41.878Z,68.85
2018-10-16T01:38:09.023Z,69.56
2018-10-16T01:40:36.196Z,69.82
2018-10-16T01:43:03.325Z,69.87
2018-10-16T01:45:30.490Z,69.85
2018-10-16T01:47:57.594Z,69.99
2018-10-16T01:50:24.731Z,70.31
2018-10-16T01:52:51.878Z,70.23
2018-10-16T01:55:19.025Z,70.99
2018-10-16T01:57:46.170Z,70.72
2018-10-16T02:00:13.314Z,70.28
2018-10-16T02:02:40.482Z,70.59
2018-10-16T02:05:07.926Z,70.81
2018-10-16T02:07:35.058Z,70.46
2018-10-16T02:10:02.222Z,70.79
2018-10-16T02:12:29.341Z,70.66
2018-10-16T02:14:56.548Z,70.72
2018-10-16T02:17:23.633Z,70.43
2018-10-16T02:19:50.922Z,70.77
2018-10-16T02:22:18.083Z,70.13
2018-10-16T02:24:45.227Z,70.47
2018-10-16T02:27:12.431Z,70.35
2018-10-16T02:29:39.557Z,71.15
2018-10-16T02:32:06.743Z,72.08
2018-10-16T02:34:33.870Z,72.43
2018-10-16T02:37:01.013Z,72.23
2018-10-16T02:39:28.189Z,71.97
2018-10-16T02:41:55.358Z,71.81
2018-10-16T02:44:22.495Z,71.64
2018-10-16T02:46:49.689Z,71.84
2018-10-16T02:49:16.805Z,71.39
2018-10-16T02:51:43.934Z,71.88
2018-10-16T02:54:11.104Z,71.18
2018-10-16T02:56:38.229Z,71.25
2018-10-16T02:59:05.415Z,71.63
2018-10-16T03:01:32.535Z,71.44
2018-10-16T03:03:59.680Z,71.34
2018-10-16T03:06:26.802Z,71.29
2018-10-16T03:08:53.965Z,70.68
2018-10-16T03:11:21.106Z,70.61
2018-10-16T03:13:48.246Z,70.81
2018-10-16T03:16:15.353Z,70.42
2018-10-16T03:18:42.503Z,70.66
2018-10-16T03:21:09.736Z,71.04
2018-10-16T03:23:36.913Z,71.30
2018-10-16T03:26:04.171Z,70.98
2018-10-16T03:28:31.371Z,71.57
2018-10-16T03:30:58.535Z,72.21
2018-10-16T03:33:25.683Z,72.22
2018-10-16T03:35:52.856Z,72.80
2018-10-16T03:38:20.010Z,72.98
2018-10-16T03:40:47.154Z,73.16
2018-10-16T03:43:14.278Z,72.64
2018-10-16T03:45:41.432Z,72.13
2018-10-16T03:48:08.656Z,72.60
2018-10-16T03:50:35.786Z,71.90
2018-10-16T03:53:02.906Z,71.87
2018-10-16T03:55:30.183Z,71.91
2018-10-16T03:57:57.285Z,71.90
2018-10-16T04:00:24.438Z,72.00
2018-10-16T04:02:51.558Z,72.77
2018-10-16T04:05:19.677Z,72.08
2018-10-16T04:07:46.889Z,72.58
2018-10-16T04:10:14.114Z,72.56
2018-10-16T04:12:41.248Z,72.32
2018-10-16T04:15:09.387Z,72.25
2018-10-16T04:17:37.190Z,72.29
2018-10-16T04:20:04.498Z,72.28
2018-10-16T04:22:31.826Z,72.03
2018-10-16T04:24:59.165Z,71.89
2018-10-16T04:27:26.319Z,71.30
2018-10-16T04:29:53.451Z,71.87
2018-10-16T04:32:20.612Z,71.62
2018-10-16T04:34:47.767Z,71.66
2018-10-16T04:37:14.929Z,71.65
2018-10-16T04:39:42.125Z,71.36
2018-10-16T04:42:09.247Z,71.74
2018-10-16T04:44:36.383Z,71.07
2018-10-16T04:47:03.942Z,71.70
2018-10-16T04:49:31.074Z,71.13
2018-10-16T04:51:58.215Z,71.01
2018-10-16T04:54:25.354Z,72.29
2018-10-16T04:56:52.513Z,71.95
2018-10-16T04:59:19.642Z,72.08
2018-10-16T05:01:46.826Z,72.52
2018-10-16T05:04:14.260Z,73.30
2018-10-16T05:06:41.370Z,73.24
2018-10-16T05:09:08.881Z,72.51
2018-10-16T05:11:41.712Z,73.18
2018-10-16T05:14:08.883Z,72.90
2018-10-16T05:16:36.034Z,73.30
2018-10-16T05:19:03.229Z,73.54
2018-10-16T05:21:30.392Z,73.46
2018-10-16T05:23:57.668Z,73.86
2018-10-16T05:26:25.408Z,73.73
2018-10-16T05:28:52.938Z,74.07
2018-10-16T05:31:20.314Z,73.51
2018-10-16T05:33:47.473Z,74.10
2018-10-16T05:36:14.807Z,73.58
2018-10-16T05:38:42.224Z,73.25
2018-10-16T05:41:09.782Z,73.01
2018-10-16T05:43:37.030Z,72.46
2018-10-16T05:46:04.201Z,72.63
2018-10-16T05:48:31.413Z,71.78
2018-10-16T05:50:58.833Z,72.73
2018-10-16T05:53:26.094Z,73.02
2018-10-16T05:56:02.380Z,72.42
2018-10-16T05:58:29.772Z,71.85
2018-10-16T06:00:56.987Z,71.78
2018-10-16T06:03:24.304Z,72.04
2018-10-16T06:05:51.554Z,72.15
2018-10-16T06:08:18.723Z,72.58
2018-10-16T06:10:45.942Z,72.72
2018-10-16T06:13:13.091Z,72.86
2018-10-16T06:15:40.414Z,72.07
2018-10-16T06:18:07.566Z,71.99
2018-10-16T06:20:34.820Z,71.09
2018-10-16T06:23:02.000Z,71.39
2018-10-16T06:25:29.698Z,71.29
2018-10-16T06:27:57.005Z,71.96
2018-10-16T06:30:24.623Z,71.95
2018-10-16T06:32:51.967Z,71.80
2018-10-16T06:35:19.175Z,71.55
2018-10-16T06:37:46.366Z,72.22
2018-10-16T06:40:13.644Z,72.09
2018-10-16T06:42:40.894Z,71.93
2018-10-16T06:45:09.246Z,71.44
2018-10-16T06:47:36.705Z,71.91
2018-10-16T06:50:04.938Z,71.91
2018-10-16T06:52:32.179Z,71.89
2018-10-16T06:54:59.417Z,72.27
2018-10-16T06:57:26.585Z,71.57
2018-10-16T06:59:53.838Z,72.21
2018-10-16T07:02:21.088Z,72.14
2018-10-16T07:04:48.705Z,71.98
2018-10-16T07:07:16.131Z,71.82
2018-10-16T07:09:43.404Z,72.12
2018-10-16T07:12:11.165Z,71.30
2018-10-16T07:14:38.442Z,70.94
2018-10-16T07:17:05.677Z,71.61
2018-10-16T07:19:32.913Z,71.65
2018-10-16T07:22:00.443Z,71.38
2018-10-16T07:24:27.711Z,71.30
2018-10-16T07:26:55.231Z,71.33
2018-10-16T07:29:22.384Z,71.02
2018-10-16T07:31:49.637Z,71.45
2018-10-16T07:34:16.969Z,70.85
2018-10-16T07:36:44.130Z,71.29
2018-10-16T07:39:12.721Z,72.07
2018-10-16T07:41:40.413Z,72.43
2018-10-16T07:44:07.970Z,71.73
2018-10-16T07:46:35.236Z,71.40
2018-10-16T07:49:02.447Z,71.43
2018-10-16T07:51:29.646Z,71.47
2018-10-16T07:53:57.006Z,71.12
2018-10-16T07:56:24.190Z,70.83
2018-10-16T07:58:53.072Z,70.62
2018-10-16T08:01:21.354Z,70.37
2018-10-16T08:03:48.599Z,69.78
2018-10-16T08:06:15.856Z,69.04
2018-10-16T08:08:43.086Z,68.84
2018-10-16T08:11:10.243Z,69.45
2018-10-16T08:13:37.566Z,69.62
2018-10-16T08:16:05.369Z,69.92
2018-10-16T08:18:32.661Z,70.49
2018-10-16T08:21:00.041Z,70.14
2018-10-16T08:23:27.288Z,69.68
2018-10-16T08:25:54.650Z,69.56
2018-10-16T08:28:22.005Z,69.08
2018-10-16T08:30:49.360Z,68.47
2018-10-16T08:33:16.640Z,67.68
2018-10-16T08:35:43.915Z,67.12
2018-10-16T08:38:51.449Z,66.83
2018-10-16T08:41:20.032Z,66.44
2018-10-16T08:43:58.836Z,66.22
2018-10-16T08:46:37.389Z,66.38
2018-10-16T08:49:16.034Z,66.14
2018-10-16T08:51:45.781Z,65.62
2018-10-16T08:54:13.261Z,65.33
2018-10-16T08:56:40.532Z,64.97
2018-10-16T08:59:08.615Z,64.40
2018-10-16T09:01:35.832Z,64.07
2018-10-16T09:04:03.472Z,64.24
2018-10-16T09:06:31.135Z,64.33
2018-10-16T09:08:58.341Z,63.39
2018-10-16T09:11:25.585Z,62.98
2018-10-16T09:13:52.872Z,63.15
2018-10-16T09:16:20.661Z,63.22
2018-10-16T09:18:47.882Z,62.96
2018-10-16T09:21:15.158Z,62.97
2018-10-16T09:23:42.539Z,62.31
2018-10-16T09:26:09.772Z,62.58
2018-10-16T09:28:37.039Z,62.17
2018-10-16T09:31:04.611Z,61.54
2018-10-16T09:33:31.988Z,61.18
2018-10-16T09:35:59.239Z,61.22
2018-10-16T09:38:26.775Z,60.21
2018-10-16T09:40:53.949Z,60.88
2018-10-16T09:43:21.451Z,59.76
2018-10-16T09:45:48.718Z,59.75
2018-10-16T09:48:15.882Z,59.38
2018-10-16T09:50:43.229Z,59.29
2018-10-16T09:53:10.606Z,58.69
2018-10-16T09:55:37.919Z,57.95
2018-10-16T09:58:05.183Z,58.13
2018-10-16T10:00:38.324Z,57.46
2018-10-16T10:03:05.719Z,57.23
2018-10-16T10:05:33.437Z,57.72
2018-10-16T10:08:00.604Z,57.69
2018-10-16T10:10:27.791Z,56.50
2018-10-16T10:12:55.033Z,56.28
2018-10-16T10:15:22.353Z,56.11
2018-10-16T10:17:49.622Z,55.58
2018-10-16T10:20:17.027Z,55.57
2018-10-16T10:22:44.229Z,55.67
2018-10-16T10:25:11.788Z,55.48
2018-10-16T10:27:40.191Z,54.87
2018-10-16T10:30:09.566Z,54.39
2018-10-16T10:32:36.779Z,54.08
2018-10-16T10:35:05.052Z,53.81
2018-10-16T10:37:32.351Z,54.22
2018-10-16T10:39:59.630Z,53.64
2018-10-16T10:42:26.893Z,53.06
2018-10-16T10:44:54.798Z,53.10
2018-10-16T10:47:22.118Z,52.17
2018-10-16T10:49:49.385Z,51.85
2018-10-16T10:52:16.526Z,51.50
2018-10-16T10:54:43.740Z,51.30
2018-10-16T10:57:11.151Z,51.18
2018-10-16T10:59:38.260Z,50.73
2018-10-16T11:02:05.526Z,49.52
2018-10-16T11:04:32.717Z,50.62
2018-10-16T11:07:00.206Z,49.31
2018-10-16T11:09:27.349Z,47.72
2018-10-16T11:11:55.912Z,47.34
2018-10-16T11:14:24.165Z,45.59
2018-10-16T11:16:51.434Z,45.38
2018-10-16T11:19:19.023Z,44.72
2018-10-16T11:21:46.350Z,44.37
2018-10-16T11:24:14.862Z,43.76
2018-10-16T11:26:42.178Z,43.56
2018-10-16T11:29:09.505Z,43.34
2018-10-16T11:31:37.102Z,42.08
2018-10-16T11:34:04.731Z,41.90
2018-10-16T11:36:31.994Z,42.35
2018-10-16T11:38:59.265Z,42.34
2018-10-16T11:41:26.437Z,42.22
2018-10-16T11:43:53.670Z,41.68
2018-10-16T11:46:20.861Z,42.20
2018-10-16T11:48:48.251Z,41.14
2018-10-16T11:51:15.643Z,42.33
2018-10-16T11:53:43.116Z,41.30
2018-10-16T11:56:10.669Z,40.45
2018-10-16T11:58:37.953Z,41.22
2018-10-16T12:01:05.397Z,41.07
2018-10-16T12:03:32.739Z,40.25
2018-10-16T12:06:00.625Z,39.20
2018-10-16T12:08:27.872Z,40.25
2018-10-16T12:10:55.123Z,39.65
2018-10-16T12:13:22.401Z,39.32
2018-10-16T12:15:49.628Z,38.88
2018-10-16T12:18:51.627Z,38.40
2018-10-16T12:21:22.073Z,39.11
2018-10-16T12:23:50.159Z,38.33
2018-10-16T12:26:18.280Z,38.28
2018-10-16T12:28:45.735Z,37.13
2018-10-16T12:31:12.897Z,36.74
2018-10-16T12:33:40.138Z,36.42
2018-10-16T12:36:07.344Z,36.18
2018-10-16T12:38:34.962Z,36.71
2018-10-16T12:41:02.192Z,36.02
2018-10-16T12:43:29.574Z,36.52
2018-10-16T12:45:57.474Z,35.22
2018-10-16T12:48:25.347Z,35.29
2018-10-16T12:50:52.766Z,35.26
2018-10-16T12:53:20.042Z,35.35
2018-10-16T12:55:47.449Z,34.64
2018-10-16T12:58:14.653Z,34.93
2018-10-16T13:00:42.079Z,35.23
2018-10-16T13:03:09.261Z,34.52
2018-10-16T13:05:36.488Z,35.02
2018-10-16T13:08:03.819Z,35.27
2018-10-16T13:10:31.065Z,34.98
2018-10-16T13:12:58.403Z,34.98
2018-10-16T13:15:25.682Z,36.23
2018-10-16T13:17:52.954Z,36.48
2018-10-16T13:20:20.237Z,35.44
2018-10-16T13:22:48.591Z,35.94
2018-10-16T13:25:16.085Z,34.33
2018-10-16T13:27:43.557Z,34.98
2018-10-16T13:30:12.785Z,34.77
2018-10-16T13:32:40.043Z,35.36
2018-10-16T13:35:10.877Z,36.09
2018-10-16T13:37:38.034Z,36.24
2018-10-16T13:40:06.131Z,35.91
2018-10-16T13:42:33.773Z,36.43
2018-10-16T13:45:01.843Z,36.01
2018-10-16T13:47:29.139Z,36.06
2018-10-16T13:49:56.595Z,35.11
2018-10-16T13:52:24.141Z,34.51
2018-10-16T13:54:51.326Z,35.24
2018-10-16T13:57:18.531Z,34.38
2018-10-16T13:59:46.243Z,33.23
2018-10-16T14:02:13.463Z,33.80
2018-10-16T14:04:40.762Z,32.58
2018-10-16T14:07:08.029Z,32.02
2018-10-16T14:09:35.332Z,32.99
2018-10-16T14:12:02.553Z,31.95
2018-10-16T14:14:29.986Z,32.56
2018-10-16T14:16:57.194Z,32.59
2018-10-16T14:19:24.435Z,32.43
2018-10-16T14:21:51.652Z,32.81
2018-10-16T14:24:18.977Z,33.98
2018-10-16T14:26:46.219Z,34.84
2018-10-16T14:29:13.534Z,34.52
2018-10-16T14:31:40.932Z,35.38
2018-10-16T14:34:08.449Z,34.82
2018-10-16T14:36:36.036Z,35.75
2018-10-16T14:39:05.463Z,36.35
2018-10-16T14:41:32.954Z,36.70
2018-10-16T14:44:00.240Z,36.58
2018-10-16T14:46:27.504Z,36.98
2018-10-16T14:48:54.852Z,37.18
2018-10-16T14:51:22.306Z,36.56
2018-10-16T14:53:49.756Z,36.77
2018-10-16T14:56:17.216Z,37.26
2018-10-16T14:58:44.382Z,38.15
2018-10-16T15:01:12.067Z,37.43
2018-10-16T15:03:39.312Z,37.73
2018-10-16T15:06:06.671Z,36.93
2018-10-16T15:08:33.903Z,37.07
2018-10-16T15:11:01.343Z,36.48
2018-10-16T15:13:28.841Z,37.61
2018-10-16T15:15:56.147Z,36.80
2018-10-16T15:18:23.866Z,37.69
2018-10-16T15:20:51.146Z,37.54
2018-10-16T15:23:19.785Z,38.14
2018-10-16T15:25:47.075Z,38.68
2018-10-16T15:28:14.519Z,39.23
2018-10-16T15:30:41.634Z,39.49
2018-10-16T15:33:08.978Z,38.97
2018-10-16T15:35:36.400Z,38.90
2018-10-16T15:38:03.995Z,41.17
2018-10-16T15:40:32.932Z,41.39
2018-10-16T15:43:00.276Z,42.43
2018-10-16T15:45:27.471Z,41.63
2018-10-16T15:47:54.669Z,42.02
2018-10-16T15:50:21.883Z,42.14
2018-10-16T15:52:49.081Z,43.26
2018-10-16T15:55:17.353Z,44.03
2018-10-16T15:57:44.796Z,43.43
2018-10-16T16:00:14.088Z,43.66
2018-10-16T16:02:41.503Z,44.18
2018-10-16T16:07:46.412Z,44.61
2018-10-16T16:10:15.442Z,44.39
2018-10-16T16:12:42.855Z,44.91
2018-10-16T16:15:11.202Z,45.13
2018-10-16T16:17:38.539Z,45.86
2018-10-16T16:20:07.040Z,45.90
2018-10-16T16:22:34.240Z,46.89
2018-10-16T16:25:01.672Z,46.11
2018-10-16T16:27:29.019Z,46.42
2018-10-16T16:29:56.346Z,46.89
2018-10-16T16:32:23.687Z,46.76
2018-10-16T16:34:50.906Z,48.21
2018-10-16T16:37:18.215Z,47.18
2018-10-16T16:39:45.590Z,48.33
2018-10-16T16:42:14.005Z,48.00
2018-10-16T16:44:41.204Z,48.93
2018-10-16T16:47:08.506Z,49.23
2018-10-16T16:49:35.765Z,48.66
2018-10-16T16:52:03.075Z,49.47
2018-10-16T16:54:30.462Z,48.33
2018-10-16T16:56:57.747Z,49.22
2018-10-16T16:59:24.949Z,49.03
2018-10-16T17:01:52.266Z,48.54
2018-10-16T17:04:19.577Z,48.93
2018-10-16T17:06:46.754Z,49.63
2018-10-16T17:09:14.116Z,49.56
2018-10-16T17:11:41.428Z,50.18
2018-10-16T17:14:08.895Z,49.44
2018-10-16T17:16:36.249Z,50.00
2018-10-16T17:19:03.962Z,49.74
2018-10-16T17:21:31.438Z,50.76
2018-10-16T17:23:58.826Z,49.89
2018-10-16T17:26:26.516Z,50.81
2018-10-16T17:28:53.635Z,50.13
2018-10-16T17:31:21.700Z,51.30
2018-10-16T17:33:49.063Z,50.29
2018-10-16T17:36:16.616Z,50.91
2018-10-16T17:38:43.859Z,50.21
2018-10-16T17:41:11.161Z,51.06
2018-10-16T17:43:38.813Z,50.78
2018-10-16T17:46:06.120Z,51.52
2018-10-16T17:48:33.518Z,51.31
2018-10-16T17:51:00.801Z,51.90
2018-10-16T17:53:28.134Z,51.11
2018-10-16T17:55:55.342Z,52.13
2018-10-16T17:58:22.574Z,51.42
2018-10-16T18:00:49.827Z,52.05
2018-10-16T18:03:22.339Z,51.74
2018-10-16T18:05:49.634Z,52.43
2018-10-16T18:08:16.828Z,51.79
2018-10-16T18:10:44.232Z,52.18
2018-10-16T18:13:11.536Z,53.02
2018-10-16T18:15:38.724Z,51.92
2018-10-16T18:18:06.352Z,52.68
2018-10-16T18:20:33.712Z,53.08
2018-10-16T18:23:01.083Z,52.02
2018-10-16T18:25:28.597Z,53.33
2018-10-16T18:27:57.920Z,52.02
2018-10-16T18:30:25.303Z,52.66
2018-10-16T18:32:52.562Z,54.22
2018-10-16T18:35:19.843Z,53.78
2018-10-16T18:37:47.143Z,54.19
2018-10-16T18:40:14.421Z,53.08
2018-10-16T18:42:41.866Z,53.07
2018-10-16T18:45:11.393Z,53.21
2018-10-16T18:47:38.579Z,53.38
2018-10-16T18:50:08.309Z,53.39
2018-10-16T18:52:35.485Z,54.17
2018-10-16T18:55:02.844Z,53.88
2018-10-16T18:57:29.998Z,53.61
2018-10-16T18:59:57.170Z,53.66
2018-10-16T19:02:24.377Z,54.68
2018-10-16T19:04:51.524Z,56.34
2018-10-16T19:07:18.676Z,56.34
2018-10-16T19:09:45.846Z,56.92
2018-10-16T19:12:12.975Z,58.22
2018-10-16T19:14:40.286Z,58.47
2018-10-16T19:17:07.470Z,58.63
2018-10-16T19:19:34.796Z,58.92
2018-10-16T19:22:02.294Z,59.75
2018-10-16T19:24:29.490Z,59.67
2018-10-16T19:26:56.737Z,60.05
2018-10-16T19:29:23.927Z,59.73
2018-10-16T19:31:51.168Z,60.08
2018-10-16T19:34:18.425Z,60.04
2018-10-16T19:36:45.565Z,60.72
2018-10-16T19:39:12.867Z,60.29
2018-10-16T19:41:40.480Z,60.23
2018-10-16T19:44:08.196Z,60.33
2018-10-16T19:46:37.398Z,61.19
2018-10-16T19:49:05.432Z,60.65
2018-10-16T19:51:34.233Z,60.94
2018-10-16T19:54:01.876Z,61.74
2018-10-16T19:56:29.134Z,60.96
2018-10-16T19:58:56.315Z,61.15
2018-10-16T20:01:25.037Z,62.57
2018-10-16T20:03:52.517Z,61.95
2018-10-16T20:06:19.838Z,61.95
2018-10-16T20:08:47.216Z,62.06
2018-10-16T20:11:14.331Z,62.01
2018-10-16T20:13:41.913Z,61.61
2018-10-16T20:16:09.825Z,61.87
2018-10-16T20:18:39.904Z,61.93
2018-10-16T20:21:09.911Z,62.94
2018-10-16T20:23:39.464Z,63.71
2018-10-16T20:26:07.386Z,63.60
2018-10-16T20:28:36.573Z,63.83
2018-10-16T20:31:04.673Z,64.49
2018-10-16T20:33:32.902Z,63.92
2018-10-16T20:38:41.316Z,63.96
2018-10-16T20:41:11.141Z,64.76
2018-10-16T20:43:38.921Z,64.10
2018-10-16T20:46:06.847Z,64.65
2018-10-16T20:48:34.075Z,65.09
2018-10-16T20:51:01.321Z,64.53
2018-10-16T20:53:28.596Z,64.71
2018-10-16T20:56:01.328Z,64.89
2018-10-16T20:58:28.938Z,65.11
2018-10-16T21:00:56.352Z,64.94
2018-10-16T21:03:23.581Z,64.74
2018-10-16T21:05:50.939Z,64.86
2018-10-16T21:08:17.982Z,64.97
2018-10-16T21:10:45.172Z,65.66
2018-10-16T21:13:12.360Z,65.94
2018-10-16T21:15:39.611Z,65.65
2018-10-16T21:18:06.797Z,66.07
2018-10-16T21:20:33.981Z,65.81
2018-10-16T21:23:01.266Z,66.06
2018-10-16T21:25:28.407Z,66.15
2018-10-16T21:27:55.604Z,66.12
2018-10-16T21:30:22.844Z,66.03
2018-10-16T21:32:50.004Z,65.65
2018-10-16T21:35:17.348Z,66.36
2018-10-16T21:37:44.437Z,66.93
2018-10-16T21:40:11.705Z,66.91
2018-10-16T21:42:38.828Z,67.21
2018-10-16T21:45:06.021Z,66.44
2018-10-16T21:47:33.262Z,66.65
2018-10-16T21:50:00.369Z,67.51
2018-10-16T21:52:27.564Z,67.70
2018-10-16T21:54:54.741Z,67.14
2018-10-16T21:57:21.982Z,67.00
2018-10-16T21:59:49.162Z,67.65
2018-10-16T22:02:22.072Z,66.82
2018-10-16T22:04:49.258Z,67.49
2018-10-16T22:07:16.504Z,67.72
2018-10-16T22:09:43.566Z,67.91
2018-10-16T22:12:10.736Z,68.02
2018-10-16T22:14:37.892Z,67.33
2018-10-16T22:17:05.245Z,67.88
2018-10-16T22:19:32.361Z,68.57
2018-10-16T22:21:59.541Z,68.37
2018-10-16T22:24:26.653Z,67.98
2018-10-16T22:26:53.839Z,68.78
2018-10-16T22:29:21.011Z,69.04
2018-10-16T22:31:48.144Z,68.45
2018-10-16T22:34:15.309Z,68.24
2018-10-16T22:36:42.500Z,68.19
2018-10-16T22:39:10.181Z,67.68
2018-10-16T22:41:37.727Z,68.55
2018-10-16T22:44:05.500Z,68.36
2018-10-16T22:46:32.646Z,68.22
2018-10-16T22:49:00.302Z,68.13
2018-10-16T22:51:27.454Z,68.74
2018-10-16T22:53:54.612Z,69.39
2018-10-16T22:56:21.818Z,68.86
2018-10-16T22:58:48.995Z,69.30
2018-10-16T23:01:16.122Z,69.17
2018-10-16T23:03:43.289Z,69.11
2018-10-16T23:06:10.451Z,68.27
2018-10-16T23:08:37.718Z,68.62
2018-10-16T23:11:05.094Z,69.43
2018-10-16T23:13:32.280Z,69.95
2018-10-16T23:15:59.404Z,70.06
2018-10-16T23:18:26.669Z,69.40
2018-10-16T23:20:53.856Z,69.55
2018-10-16T23:23:23.920Z,69.50
2018-10-16T23:25:51.112Z,70.25
2018-10-16T23:28:18.265Z,70.04
2018-10-16T23:30:45.440Z,69.34
2018-10-16T23:33:12.625Z,69.53
2018-10-16T23:35:39.796Z,70.37
2018-10-16T23:38:06.933Z,69.95
2018-10-16T23:40:34.102Z,69.89
2018-10-16T23:43:01.244Z,69.88
2018-10-16T23:45:28.381Z,69.66
2018-10-16T23:47:55.495Z,69.65
2018-10-16T23:50:22.809Z,70.22
2018-10-16T23:52:49.947Z,71.00
2018-10-16T23:55:17.244Z,71.22
2018-10-16T23:57:44.417Z,71.13
